Time;durP1;ratioP1;P1;durP2;ratioP2;P2;SDS_P1;SDS_P2;PMS_P1;PMS_P2;Temp;Humidity;BMP_temperature;BMP_pressure;BME280_temperature;BME280_humidity;BME280_pressure;Samples;Min_cycle;Max_cycle;Signal;HPM_P1;HPM_P2
2023/06/16 00:04:03;;;;;;;11.20;10.00;;;;;;;12.38;77.20;98700.59;226295;1278;22576;-70
2023/06/16 00:09:09;;;;;;;11.40;9.80;;;;;;;12.29;77.37;98699.00;226141;1278;22539;-70
2023/06/16 00:14:13;;;;;;;12.20;9.60;;;;;;;12.23;77.57;98705.09;226052;1277;22541;-71
2023/06/16 00:19:17;;;;;;;10.00;8.60;;;;;;;12.16;77.58;98699.01;226271;1274;25406;-69
2023/06/16 00:24:22;;;;;;;9.90;8.60;;;;;;;12.09;77.96;98699.71;226166;1278;24429;-70
2023/06/16 00:29:30;;;;;;;11.50;9.70;;;;;;;12.04;78.14;98703.33;226212;1278;23281;-70
2023/06/16 00:34:38;;;;;;;12.40;9.30;;;;;;;11.98;78.39;98696.96;226212;1277;22542;-70
2023/06/16 00:39:44;;;;;;;13.70;9.50;;;;;;;11.94;78.54;98695.73;226182;1277;22545;-70
2023/06/16 00:44:46;;;;;;;12.30;10.20;;;;;;;11.90;78.79;98686.53;226335;1271;22714;-71
2023/06/16 00:49:54;;;;;;;12.10;10.80;;;;;;;11.86;79.01;98681.80;226198;1276;22556;-72
2023/06/16 00:55:08;;;;;;;14.70;10.90;;;;;;;11.82;79.22;98680.04;226200;1276;22551;-70
2023/06/16 01:00:12;;;;;;;13.60;11.10;;;;;;;11.78;79.57;98683.15;226253;1278;22530;-71
2023/06/16 01:05:20;;;;;;;13.70;11.70;;;;;;;11.73;79.67;98680.95;226244;1278;22530;-71
2023/06/16 01:10:42;;;;;;;14.10;11.50;;;;;;;11.69;79.78;98672.18;226230;1274;22529;-71
2023/06/16 01:15:47;;;;;;;14.20;10.60;;;;;;;11.62;79.80;98669.98;226287;1278;22554;-71
2023/06/16 01:21:16;;;;;;;13.60;11.30;;;;;;;11.56;80.06;98669.08;226319;1271;22568;-71
2023/06/16 01:26:28;;;;;;;12.40;10.30;;;;;;;11.49;80.31;98670.26;226313;1275;22547;-70
2023/06/16 01:31:32;;;;;;;13.00;11.70;;;;;;;11.45;80.54;98662.73;226090;1277;22532;-69
2023/06/16 01:36:39;;;;;;;15.60;12.70;;;;;;;11.42;80.98;98664.09;226142;1274;22559;-70
2023/06/16 01:41:41;;;;;;;13.80;12.10;;;;;;;11.41;80.94;98666.12;226220;1276;22547;-69
2023/06/16 01:46:52;;;;;;;13.90;12.40;;;;;;;11.35;81.19;98659.65;226183;1276;22545;-71
2023/06/16 01:52:08;;;;;;;13.10;11.80;;;;;;;11.27;81.01;98656.88;225926;1278;24352;-71
2023/06/16 01:57:14;;;;;;;13.50;12.10;;;;;;;11.22;81.17;98658.27;226211;1278;22528;-70
2023/06/16 02:02:19;;;;;;;14.10;12.70;;;;;;;11.16;81.14;98656.77;226172;1274;22540;-71
2023/06/16 02:07:30;;;;;;;13.90;12.50;;;;;;;11.11;81.40;98653.38;226191;1276;22529;-69
2023/06/16 02:12:39;;;;;;;13.80;12.10;;;;;;;11.07;81.64;98648.48;226060;1277;22533;-69
2023/06/16 02:17:53;;;;;;;14.50;12.30;;;;;;;11.06;82.16;98647.07;226188;1276;22537;-70
2023/06/16 02:22:58;;;;;;;18.20;13.60;;;;;;;11.07;82.32;98646.60;226149;1276;22585;-70
2023/06/16 02:28:00;;;;;;;15.50;12.70;;;;;;;11.09;82.45;98649.34;226153;1278;22614;-70
2023/06/16 02:33:06;;;;;;;13.50;11.70;;;;;;;11.10;82.61;98649.27;226196;1278;22573;-70
2023/06/16 02:38:10;;;;;;;12.10;10.90;;;;;;;11.08;82.61;98649.89;226163;1278;22543;-70
2023/06/16 02:43:18;;;;;;;10.90;9.90;;;;;;;11.00;82.12;98650.98;225932;1274;22717;-71
2023/06/16 02:48:21;;;;;;;12.70;10.90;;;;;;;10.90;81.93;98661.54;226017;1277;22560;-70
2023/06/16 02:53:30;;;;;;;13.30;10.60;;;;;;;10.86;82.28;98667.19;225981;1278;22536;-70
2023/06/16 02:58:34;;;;;;;14.90;11.90;;;;;;;10.81;81.95;98669.03;226244;1278;24212;-70
2023/06/16 03:03:37;;;;;;;14.20;12.90;;;;;;;10.76;81.91;98674.15;226201;1274;22574;-71
2023/06/16 03:09:14;;;;;;;15.90;14.20;;;;;;;10.74;81.92;98680.73;226235;1278;22587;-71
2023/06/16 03:14:25;;;;;;;16.10;14.40;;;;;;;10.73;81.76;98680.30;226185;1276;22568;-71
2023/06/16 03:19:43;;;;;;;16.20;14.30;;;;;;;10.81;82.04;98684.08;226154;1277;23700;-71
2023/06/16 03:24:47;;;;;;;18.40;13.20;;;;;;;11.11;81.91;98680.92;226184;1274;22540;-71
2023/06/16 03:29:50;;;;;;;14.10;12.70;;;;;;;11.52;81.67;98679.99;226172;1273;22540;-71
2023/06/16 03:34:55;;;;;;;13.60;12.20;;;;;;;12.02;81.53;98672.55;226165;1271;22549;-72
2023/06/16 03:40:05;;;;;;;12.50;11.10;;;;;;;12.49;80.60;98677.99;226287;1275;22535;-71
2023/06/16 03:45:12;;;;;;;11.30;10.10;;;;;;;13.02;80.26;98677.12;226192;1274;22533;-71
2023/06/16 03:50:27;;;;;;;10.90;9.90;;;;;;;13.52;79.45;98673.89;225948;1277;22529;-71
2023/06/16 03:55:32;;;;;;;11.50;9.60;;;;;;;13.95;78.34;98671.84;226183;1278;22608;-71
2023/06/16 04:00:35;;;;;;;12.30;10.10;;;;;;;14.15;77.53;98678.07;226110;1277;22648;-71
2023/06/16 04:05:38;;;;;;;11.30;10.10;;;;;;;14.29;77.31;98684.65;226095;1274;22560;-71
2023/06/16 04:10:44;;;;;;;14.70;10.80;;;;;;;14.34;77.19;98687.80;225895;1278;22523;-69
2023/06/16 04:15:51;;;;;;;12.90;10.40;;;;;;;14.34;77.59;98685.96;226112;1278;22528;-71
2023/06/16 04:20:54;;;;;;;12.80;10.70;;;;;;;14.31;77.15;98679.85;225972;1275;22617;-71
2023/06/16 04:25:58;;;;;;;14.80;11.00;;;;;;;14.33;77.41;98679.39;225926;1276;22558;-71
2023/06/16 04:31:01;;;;;;;13.70;11.20;;;;;;;14.31;77.41;98677.52;226128;1276;22544;-70
2023/06/16 04:36:05;;;;;;;14.40;11.50;;;;;;;14.23;77.32;98676.31;226158;1277;22627;-70
2023/06/16 04:41:07;;;;;;;13.30;11.40;;;;;;;14.14;77.87;98673.00;226165;1276;23003;-71
2023/06/16 04:46:11;;;;;;;15.80;11.80;;;;;;;14.10;78.12;98666.27;226001;1274;25510;-70
2023/06/16 04:51:15;;;;;;;13.50;12.00;;;;;;;14.19;78.78;98663.45;226162;1275;22902;-72
2023/06/16 04:56:18;;;;;;;14.90;13.20;;;;;;;14.30;78.82;98659.54;226168;1277;23956;-70
2023/06/16 05:01:41;;;;;;;14.50;12.70;;;;;;;14.43;78.98;98655.88;226135;1278;22658;-70
2023/06/16 05:06:44;;;;;;;16.20;13.00;;;;;;;14.53;79.03;98655.07;226143;1276;22533;-71
2023/06/16 05:11:46;;;;;;;15.20;13.50;;;;;;;14.60;78.88;98659.52;225968;1277;22536;-70
2023/06/16 05:16:51;;;;;;;13.60;12.20;;;;;;;14.66;78.96;98655.83;225899;1274;24223;-70
2023/06/16 05:21:55;;;;;;;14.10;12.60;;;;;;;14.77;79.31;98656.91;225819;1277;22540;-72
2023/06/16 05:26:58;;;;;;;13.60;12.30;;;;;;;14.97;79.47;98654.73;225715;1277;22541;-71
2023/06/16 05:32:02;;;;;;;13.10;11.80;;;;;;;15.18;78.96;98651.83;226020;1278;22551;-72
2023/06/16 05:37:08;;;;;;;12.40;11.10;;;;;;;15.41;78.94;98655.67;225888;1278;22682;-71
2023/06/16 05:42:14;;;;;;;13.50;12.10;;;;;;;15.59;78.86;98652.46;226025;1278;22530;-72
2023/06/16 05:47:24;;;;;;;13.50;12.00;;;;;;;15.78;78.90;98656.98;226202;1278;25360;-72
2023/06/16 05:52:30;;;;;;;13.70;11.70;;;;;;;15.96;78.64;98656.99;226029;1272;22533;-74
2023/06/16 05:57:33;;;;;;;15.50;12.00;;;;;;;16.12;78.33;98651.23;225939;1255;22546;-71
2023/06/16 06:02:36;;;;;;;12.50;11.30;;;;;;;16.29;78.26;98655.51;225705;1268;23150;-72
2023/06/16 06:07:41;;;;;;;17.00;11.20;;;;;;;16.44;77.62;98656.80;225519;1265;24225;-70
2023/06/16 06:12:44;;;;;;;13.00;11.20;;;;;;;16.61;77.51;98659.05;225358;1254;138651;-72
2023/06/16 06:17:46;;;;;;;12.50;10.90;;;;;;;16.78;77.48;98654.02;225452;1261;216395;-73
2023/06/16 06:22:50;;;;;;;13.50;10.70;;;;;;;16.93;77.09;98659.73;224899;1263;138781;-72
2023/06/16 06:27:55;;;;;;;10.50;9.50;;;;;;;17.07;76.68;98661.91;225021;1260;138561;-72
2023/06/16 06:32:57;;;;;;;10.10;8.30;;;;;;;17.26;76.34;98660.91;224786;1271;138520;-72
2023/06/16 06:38:03;;;;;;;6.30;5.50;;;;;;;17.47;75.60;98654.92;225593;1271;138510;-74
2023/06/16 06:43:25;;;;;;;8.20;6.40;;;;;;;17.68;74.39;98652.71;225024;1271;138368;-72
2023/06/16 06:48:31;;;;;;;8.70;6.10;;;;;;;17.83;73.82;98655.44;224877;1263;22640;-73
2023/06/16 06:53:40;;;;;;;9.90;7.10;;;;;;;18.01;73.43;98652.42;225185;1267;22558;-73
2023/06/16 06:58:50;;;;;;;7.40;6.00;;;;;;;18.17;72.56;98651.95;224767;1264;137953;-74
2023/06/16 07:03:52;;;;;;;7.80;7.00;;;;;;;18.31;72.09;98654.02;224887;1264;138538;-72
2023/06/16 07:08:55;;;;;;;7.60;6.80;;;;;;;18.49;71.99;98652.08;225384;1268;138448;-71
2023/06/16 07:14:04;;;;;;;7.40;5.00;;;;;;;18.69;71.34;98654.54;225698;1272;138343;-73
2023/06/16 07:19:07;;;;;;;7.80;5.60;;;;;;;18.79;70.56;98661.23;225771;1262;138244;-71
2023/06/16 07:24:15;;;;;;;7.80;6.40;;;;;;;18.87;70.24;98661.34;225801;1274;22904;-71
2023/06/16 07:29:26;;;;;;;7.60;5.90;;;;;;;19.02;69.91;98666.17;225716;1258;138524;-71
2023/06/16 07:34:29;;;;;;;8.90;6.20;;;;;;;19.24;69.20;98661.67;225450;1274;137898;-71
2023/06/16 07:39:32;;;;;;;9.10;5.50;;;;;;;19.42;68.70;98656.20;225560;1261;137544;-71
2023/06/16 07:44:35;;;;;;;7.20;5.70;;;;;;;19.57;67.98;98655.35;225643;1258;137645;-72
2023/06/16 07:49:37;;;;;;;8.10;6.40;;;;;;;19.81;68.07;98651.56;225615;1255;138101;-72
2023/06/16 07:54:42;;;;;;;6.70;5.80;;;;;;;20.07;67.23;98651.95;225493;1261;138050;-72
2023/06/16 07:59:44;;;;;;;6.80;5.60;;;;;;;20.31;66.59;98647.00;225560;1274;22571;-71
2023/06/16 08:04:46;;;;;;;6.00;5.00;;;;;;;20.56;66.29;98646.39;225554;1254;137624;-72
2023/06/16 08:09:49;;;;;;;6.80;5.10;;;;;;;20.81;65.27;98647.60;225559;1276;137931;-72
2023/06/16 08:14:51;;;;;;;6.80;4.80;;;;;;;20.93;64.49;98648.49;225417;1262;138360;-70
2023/06/16 08:19:53;;;;;;;5.30;4.90;;;;;;;21.06;64.12;98645.04;225722;1276;137941;-73
2023/06/16 08:24:56;;;;;;;6.40;5.10;;;;;;;21.33;63.50;98645.05;225376;1277;137885;-72
2023/06/16 08:29:58;;;;;;;7.00;5.50;;;;;;;21.58;62.56;98643.95;225786;1264;22536;-71
2023/06/16 08:35:02;;;;;;;5.00;4.50;;;;;;;21.69;61.59;98643.40;225780;1270;137532;-72
2023/06/16 08:40:10;;;;;;;8.70;5.20;;;;;;;21.98;61.46;98642.05;225809;1272;137956;-71
2023/06/16 08:45:17;;;;;;;5.50;5.00;;;;;;;22.27;61.04;98640.62;225643;1274;137695;-72
2023/06/16 08:50:23;;;;;;;4.70;4.30;;;;;;;22.49;60.03;98633.60;225724;1256;137900;-72
2023/06/16 08:55:37;;;;;;;5.30;4.80;;;;;;;22.59;59.61;98630.63;225727;1274;137909;-71
2023/06/16 09:00:46;;;;;;;5.20;4.80;;;;;;;22.81;59.39;98628.76;225722;1275;137725;-72
2023/06/16 09:05:48;;;;;;;6.00;5.50;;;;;;;22.96;58.60;98630.69;225650;1273;22592;-72
2023/06/16 09:10:55;;;;;;;6.00;5.10;;;;;;;23.10;58.23;98636.05;225643;1274;137544;-72
2023/06/16 09:15:57;;;;;;;5.90;5.40;;;;;;;23.23;57.89;98629.13;225733;1261;137820;-73
2023/06/16 09:21:00;;;;;;;6.00;5.40;;;;;;;23.26;57.59;98624.42;225833;1274;139391;-73
2023/06/16 09:26:12;;;;;;;6.70;5.30;;;;;;;23.38;57.63;98622.92;225785;1268;137829;-74
2023/06/16 09:31:21;;;;;;;5.30;4.80;;;;;;;23.56;56.85;98620.77;225749;1274;138085;-70
2023/06/16 09:36:25;;;;;;;10.20;5.00;;;;;;;23.80;56.26;98620.36;225833;1277;22539;-71
2023/06/16 09:41:50;;;;;;;5.20;4.80;;;;;;;24.04;55.44;98618.38;225572;1271;137585;-74
2023/06/16 09:46:57;;;;;;;5.50;5.00;;;;;;;24.22;54.60;98614.27;225549;1261;137681;-73
2023/06/16 09:51:59;;;;;;;5.80;5.20;;;;;;;24.43;54.16;98606.52;225596;1276;137745;-71
2023/06/16 09:57:05;;;;;;;5.80;5.30;;;;;;;24.66;54.13;98601.80;225587;1278;137723;-74
2023/06/16 10:02:08;;;;;;;6.30;5.70;;;;;;;24.57;53.40;98598.05;225792;1268;138065;-74
2023/06/16 10:07:11;;;;;;;6.00;5.40;;;;;;;24.55;53.51;98592.70;225595;1255;137776;-72
2023/06/16 10:12:15;;;;;;;7.90;5.40;;;;;;;24.56;52.89;98595.55;225710;1266;22536;-71
2023/06/16 10:17:21;;;;;;;6.00;5.40;;;;;;;24.61;53.05;98591.90;225676;1269;137375;-72
2023/06/16 10:22:24;;;;;;;7.00;6.30;;;;;;;24.82;53.14;98593.48;225577;1278;137655;-71
2023/06/16 10:27:27;;;;;;;6.00;5.50;;;;;;;24.98;52.60;98597.19;225750;1272;138111;-72
2023/06/16 10:32:30;;;;;;;6.30;5.70;;;;;;;25.08;52.08;98587.35;225812;1260;137849;-73
2023/06/16 10:37:32;;;;;;;6.20;5.60;;;;;;;25.02;50.57;98589.74;225612;1272;137844;-73
2023/06/16 10:42:35;;;;;;;6.50;5.90;;;;;;;24.89;50.12;98583.42;225915;1257;22554;-73
2023/06/16 10:47:54;;;;;;;5.90;5.40;;;;;;;24.74;50.20;98575.19;225897;1271;137146;-73
2023/06/16 10:53:08;;;;;;;5.90;5.40;;;;;;;24.65;50.47;98572.98;225821;1276;137930;-71
2023/06/16 10:58:18;;;;;;;7.00;6.20;;;;;;;24.73;50.65;98577.84;225908;1257;137500;-71
2023/06/16 11:03:21;;;;;;;6.20;5.60;;;;;;;24.79;49.80;98570.59;225805;1277;137730;-72
2023/06/16 11:08:27;;;;;;;6.10;5.10;;;;;;;24.93;49.68;98561.21;225912;1257;137833;-73
2023/06/16 11:13:32;;;;;;;5.50;5.00;;;;;;;24.97;48.59;98556.48;225638;1275;137747;-73
2023/06/16 11:18:37;;;;;;;6.10;5.50;;;;;;;24.74;47.58;98556.38;226100;1274;22613;-71
2023/06/16 11:23:43;;;;;;;6.70;5.20;;;;;;;24.69;48.47;98563.34;225876;1278;22538;-72
2023/06/16 11:28:48;;;;;;;5.70;5.20;;;;;;;24.87;48.98;98554.46;225729;1276;137407;-71
2023/06/16 11:33:54;;;;;;;6.10;5.50;;;;;;;25.17;49.28;98552.05;225604;1271;137974;-72
2023/06/16 11:38:57;;;;;;;6.00;5.50;;;;;;;25.46;49.23;98545.46;225812;1260;137827;-70
2023/06/16 11:44:01;;;;;;;6.80;5.40;;;;;;;25.72;48.77;98544.71;225669;1278;137789;-71
2023/06/16 11:49:04;;;;;;;6.40;5.70;;;;;;;25.96;48.31;98543.32;225586;1276;137704;-73
2023/06/16 11:54:05;;;;;;;7.30;6.00;;;;;;;26.14;48.02;98532.85;225787;1278;22540;-71
2023/06/16 11:59:12;;;;;;;6.30;5.70;;;;;;;25.98;47.98;98528.45;225774;1278;137694;-70
2023/06/16 12:04:16;;;;;;;6.30;5.70;;;;;;;25.86;48.45;98522.41;225709;1276;137647;-72
2023/06/16 12:09:19;;;;;;;5.30;4.80;;;;;;;25.95;47.92;98523.52;225285;1260;137834;-74
2023/06/16 12:14:24;;;;;;;6.50;5.90;;;;;;;26.11;47.78;98522.72;225689;1276;137772;-70
2023/06/16 12:19:27;;;;;;;6.00;5.50;;;;;;;26.16;47.54;98520.21;225800;1256;137722;-71
2023/06/16 12:24:29;;;;;;;6.60;6.00;;;;;;;25.95;47.57;98512.31;225879;1265;25236;-71
2023/06/16 12:29:41;;;;;;;5.50;5.10;;;;;;;25.85;47.58;98508.40;225867;1273;137182;-73
2023/06/16 12:34:48;;;;;;;5.80;5.40;;;;;;;25.90;47.53;98506.53;225747;1267;137757;-72
2023/06/16 12:39:57;;;;;;;5.60;5.10;;;;;;;26.04;47.30;98506.42;225727;1276;138041;-71
2023/06/16 12:45:02;;;;;;;8.50;7.80;;;;;;;26.17;46.97;98502.15;225661;1258;138845;-71
2023/06/16 12:50:05;;;;;;;5.90;5.40;;;;;;;26.17;46.92;98496.03;225603;1259;137799;-72
2023/06/16 12:55:08;;;;;;;5.90;5.20;;;;;;;26.21;47.24;98486.92;225571;1258;137728;-72
2023/06/16 13:00:11;;;;;;;6.60;5.80;;;;;;;26.32;47.29;98488.48;225723;1261;22552;-75
2023/06/16 13:05:13;;;;;;;7.40;6.60;;;;;;;26.25;47.29;98487.73;225905;1270;137426;-73
2023/06/16 13:10:16;;;;;;;6.80;6.20;;;;;;;26.10;47.13;98485.58;225650;1260;137659;-72
2023/06/16 13:15:19;;;;;;;6.20;5.60;;;;;;;25.97;47.23;98486.92;225395;1260;137748;-72
2023/06/16 13:20:24;;;;;;;7.10;5.80;;;;;;;25.90;47.19;98482.51;225728;1255;137758;-72
2023/06/16 13:25:26;;;;;;;5.70;5.20;;;;;;;25.83;47.33;98479.46;225480;1257;137773;-73
2023/06/16 13:30:29;;;;;;;5.20;4.70;;;;;;;25.73;46.99;98476.91;225858;1267;22642;-74
2023/06/16 13:35:39;;;;;;;4.70;4.40;;;;;;;25.58;46.83;98471.43;225682;1257;23604;-73
2023/06/16 13:40:41;;;;;;;7.30;6.60;;;;;;;25.56;46.86;98475.30;225723;1258;137394;-74
2023/06/16 13:45:43;;;;;;;4.80;4.40;;;;;;;25.52;47.08;98469.84;225426;1257;137924;-74
2023/06/16 13:50:49;;;;;;;4.70;4.30;;;;;;;25.53;46.86;98467.61;225529;1254;137830;-73
2023/06/16 13:56:12;;;;;;;10.40;7.20;;;;;;;25.46;46.32;98466.73;225300;1258;137818;-73
2023/06/16 14:01:14;;;;;;;5.00;4.60;;;;;;;25.46;46.35;98462.35;225204;1268;138092;-72
2023/06/16 14:06:17;;;;;;;4.30;4.00;;;;;;;25.47;45.64;98455.79;225619;1274;22547;-75
2023/06/16 14:11:20;;;;;;;5.90;4.50;;;;;;;25.39;45.50;98444.16;225730;1275;22547;-74
2023/06/16 14:16:23;;;;;;;4.90;4.40;;;;;;;25.34;45.99;98439.87;225817;1278;22551;-76
2023/06/16 14:21:25;;;;;;;5.10;4.50;;;;;;;25.32;45.74;98439.35;225839;1273;22606;-75
2023/06/16 14:26:28;;;;;;;4.40;4.00;;;;;;;25.27;45.90;98438.27;226163;1278;22584;-75
2023/06/16 14:31:31;;;;;;;4.00;3.70;;;;;;;25.24;45.51;98432.99;226221;1276;22543;-74
2023/06/16 14:36:34;;;;;;;12.50;11.20;;;;;;;25.18;45.21;98430.52;226252;1275;22572;-74
2023/06/16 14:41:37;;;;;;;6.00;5.50;;;;;;;25.03;46.14;98430.88;226201;1276;22781;-73
2023/06/16 14:46:42;;;;;;;6.00;5.10;;;;;;;25.05;46.53;98429.28;226270;1278;23287;-74
2023/06/16 14:51:45;;;;;;;5.30;4.90;;;;;;;25.05;46.73;98421.23;226402;1274;22554;-74
2023/06/16 14:56:47;;;;;;;4.90;4.50;;;;;;;25.05;46.80;98415.77;226365;1273;22589;-73
2023/06/16 15:01:51;;;;;;;4.70;4.40;;;;;;;25.06;46.48;98418.08;226262;1276;22566;-73
2023/06/16 15:06:56;;;;;;;4.20;3.80;;;;;;;25.07;46.00;98416.80;226292;1271;22536;-76
2023/06/16 15:11:59;;;;;;;4.70;4.30;;;;;;;25.05;45.58;98405.01;226259;1275;22532;-74
2023/06/16 15:17:01;;;;;;;4.90;4.50;;;;;;;25.02;45.58;98402.23;226354;1278;25470;-74
2023/06/16 15:22:07;;;;;;;5.00;4.60;;;;;;;25.05;45.85;98398.20;226238;1273;25908;-74
2023/06/16 15:27:09;;;;;;;4.50;4.20;;;;;;;25.02;46.12;98395.79;226344;1276;22564;-73
2023/06/16 15:32:21;;;;;;;5.40;5.00;;;;;;;25.18;46.44;98391.46;226289;1271;25721;-74
2023/06/16 15:37:34;;;;;;;5.20;4.80;;;;;;;25.27;46.42;98392.02;226339;1278;22995;-75
2023/06/16 15:42:37;;;;;;;10.60;9.60;;;;;;;25.25;45.81;98386.09;226266;1278;22578;-76
2023/06/16 15:47:39;;;;;;;5.60;4.70;;;;;;;25.17;45.85;98381.80;226159;1273;25137;-75
2023/06/16 15:52:42;;;;;;;5.20;4.80;;;;;;;25.12;45.61;98378.83;226246;1278;22539;-74
2023/06/16 15:57:54;;;;;;;5.60;5.10;;;;;;;25.01;45.45;98377.86;226268;1267;23009;-74
2023/06/16 16:02:59;;;;;;;6.20;5.80;;;;;;;24.88;46.08;98376.17;226281;1256;24270;-75
2023/06/16 16:08:05;;;;;;;6.20;5.70;;;;;;;24.81;46.49;98379.05;226319;1276;22529;-74
2023/06/16 16:13:10;;;;;;;7.50;6.00;;;;;;;24.79;46.91;98374.16;226298;1275;22979;-75
2023/06/16 16:18:15;;;;;;;6.00;5.50;;;;;;;24.75;47.21;98372.56;226278;1278;22555;-74
2023/06/16 16:23:20;;;;;;;6.60;6.00;;;;;;;24.60;47.06;98373.81;226322;1278;22573;-75
2023/06/16 16:28:32;;;;;;;6.70;6.10;;;;;;;24.38;47.45;98376.52;226300;1278;22538;-74
2023/06/16 16:33:37;;;;;;;5.90;5.40;;;;;;;24.28;47.64;98375.44;226340;1271;26060;-74
2023/06/16 16:38:42;;;;;;;6.20;5.60;;;;;;;24.22;47.69;98379.42;226184;1278;22616;-75
2023/06/16 16:43:48;;;;;;;6.20;5.40;;;;;;;24.11;47.83;98381.58;226342;1278;22555;-75
2023/06/16 16:48:50;;;;;;;6.30;5.70;;;;;;;23.90;47.90;98382.80;226224;1278;22582;-74
2023/06/16 16:54:04;;;;;;;5.70;5.10;;;;;;;23.71;48.07;98383.63;226338;1271;22539;-74
2023/06/16 16:59:16;;;;;;;5.30;4.90;;;;;;;23.57;48.61;98381.42;226376;1278;22540;-74
2023/06/16 17:04:23;;;;;;;5.30;4.90;;;;;;;23.52;49.14;98381.50;226338;1271;22599;-73
2023/06/16 17:09:26;;;;;;;5.40;5.00;;;;;;;23.64;49.77;98375.48;226314;1278;24259;-73
2023/06/16 17:14:35;;;;;;;6.20;5.70;;;;;;;24.69;50.28;98375.41;226365;1274;22540;-75
2023/06/16 17:19:41;;;;;;;5.80;5.30;;;;;;;25.97;48.84;98376.55;226325;1274;22560;-74
2023/06/16 17:24:51;;;;;;;6.20;5.70;;;;;;;25.89;46.74;98381.04;226400;1274;22532;-74
2023/06/16 17:29:54;;;;;;;5.60;5.10;;;;;;;25.26;46.89;98381.17;226338;1274;22543;-74
2023/06/16 17:35:02;;;;;;;8.10;5.20;;;;;;;24.85;47.60;98384.10;226081;1278;22539;-75
2023/06/16 17:40:07;;;;;;;6.40;5.40;;;;;;;25.09;48.47;98384.20;226282;1272;22548;-73
2023/06/16 17:45:13;;;;;;;5.40;4.90;;;;;;;25.89;48.30;98386.13;226142;1276;22536;-75
2023/06/16 17:50:16;;;;;;;5.80;5.30;;;;;;;26.60;47.61;98380.88;226300;1276;22485;-74
2023/06/16 17:55:22;;;;;;;6.00;5.40;;;;;;;26.29;46.63;98377.60;226339;1275;22540;-74
2023/06/16 18:00:25;;;;;;;6.10;5.40;;;;;;;25.40;46.92;98373.44;226315;1274;22625;-75
2023/06/16 18:05:27;;;;;;;7.00;5.90;;;;;;;24.53;47.85;98377.62;226330;1276;22661;-74
2023/06/16 18:10:30;;;;;;;6.20;5.60;;;;;;;23.81;48.78;98384.23;226317;1257;22572;-74
2023/06/16 18:15:32;;;;;;;5.80;5.30;;;;;;;23.18;49.62;98381.35;226118;1274;296419;-73
2023/06/16 18:20:35;;;;;;;5.50;5.00;;;;;;;22.63;50.39;98381.98;226310;1272;24946;-73
2023/06/16 18:25:38;;;;;;;5.40;4.90;;;;;;;22.13;51.18;98380.95;226254;1276;24415;-73
2023/06/16 18:30:40;;;;;;;4.80;4.30;;;;;;;21.68;51.93;98386.67;226355;1275;22659;-74
2023/06/16 18:35:46;;;;;;;6.60;5.50;;;;;;;21.27;52.72;98387.77;226344;1267;23893;-74
2023/06/16 18:40:50;;;;;;;5.80;5.20;;;;;;;20.87;53.49;98394.16;226264;1278;22543;-74
2023/06/16 18:45:53;;;;;;;5.10;4.60;;;;;;;20.50;54.33;98395.67;226265;1278;22531;-73
2023/06/16 18:51:02;;;;;;;7.30;5.40;;;;;;;20.16;55.10;98396.75;226334;1272;22552;-74
2023/06/16 18:56:12;;;;;;;7.40;4.80;;;;;;;19.82;55.72;98401.20;226303;1275;22580;-75
2023/06/16 19:01:15;;;;;;;7.00;4.60;;;;;;;19.49;56.45;98400.38;226245;1275;22556;-74
2023/06/16 19:06:17;;;;;;;7.80;5.00;;;;;;;19.18;57.04;98406.55;226235;1271;22551;-73
2023/06/16 19:11:24;;;;;;;5.40;4.70;;;;;;;18.88;57.88;98418.39;226278;1274;22536;-72
2023/06/16 19:16:26;;;;;;;5.00;4.50;;;;;;;18.63;58.63;98424.86;226279;1275;22548;-73
2023/06/16 19:21:28;;;;;;;5.00;4.50;;;;;;;18.41;59.36;98438.36;226213;1274;22558;-73
2023/06/16 19:26:31;;;;;;;7.70;4.40;;;;;;;18.23;60.04;98445.91;226259;1275;22535;-73
2023/06/16 19:31:36;;;;;;;5.70;4.90;;;;;;;18.09;60.32;98452.92;226336;1278;25345;-73
2023/06/16 19:36:39;;;;;;;5.30;4.80;;;;;;;17.95;60.89;98459.14;226290;1271;22547;-74
2023/06/16 19:41:47;;;;;;;6.30;4.70;;;;;;;17.82;61.43;98461.10;226272;1276;22548;-73
2023/06/16 19:47:19;;;;;;;6.20;4.90;;;;;;;17.68;62.04;98458.63;226294;1274;22539;-73
2023/06/16 19:52:28;;;;;;;5.10;4.20;;;;;;;17.53;62.58;98462.94;226291;1274;22554;-73
2023/06/16 19:57:39;;;;;;;5.70;4.10;;;;;;;17.40;63.03;98461.02;226285;1272;22596;-74
2023/06/16 20:02:47;;;;;;;4.50;3.90;;;;;;;17.25;63.14;98465.32;226265;1276;22566;-73
2023/06/16 20:07:51;;;;;;;6.30;4.40;;;;;;;17.13;63.38;98460.05;226213;1271;22540;-73
2023/06/16 20:12:57;;;;;;;4.70;4.20;;;;;;;17.02;63.80;98452.36;226237;1275;22551;-73
2023/06/16 20:18:02;;;;;;;4.90;4.40;;;;;;;16.90;64.17;98448.29;226188;1265;24223;-73
2023/06/16 20:23:25;;;;;;;4.60;4.20;;;;;;;16.80;64.25;98453.80;225530;1279;22552;-73
2023/06/16 20:28:55;;;;;;;6.40;4.40;;;;;;;16.73;64.90;98455.38;225369;1277;22543;-73
2023/06/16 20:34:06;;;;;;;4.80;4.20;;;;;;;16.64;65.08;98458.94;225449;1279;22554;-73
2023/06/16 20:39:13;;;;;;;4.50;4.00;;;;;;;16.53;65.40;98461.90;225349;1283;22558;-73
2023/06/16 20:44:26;;;;;;;5.40;4.30;;;;;;;16.45;65.85;98465.55;225326;1284;22577;-74
2023/06/16 20:49:52;;;;;;;7.30;6.60;;;;;;;16.35;66.20;98455.96;225110;1282;22568;-74
2023/06/16 20:55:17;;;;;;;5.20;4.70;;;;;;;16.28;66.23;98458.73;225324;1284;22578;-73
2023/06/16 21:00:35;;;;;;;8.50;4.90;;;;;;;16.20;66.61;98460.00;225567;1278;23226;-73
2023/06/16 21:05:45;;;;;;;5.40;4.90;;;;;;;16.11;66.89;98464.27;225675;1274;22498;-73
2023/06/16 21:10:53;;;;;;;6.70;4.70;;;;;;;16.01;67.37;98465.84;225564;1281;22546;-74
2023/06/16 21:16:11;;;;;;;6.00;5.00;;;;;;;15.91;67.89;98473.09;225707;1277;26230;-73
2023/06/16 21:21:16;;;;;;;6.30;5.00;;;;;;;15.82;68.10;98476.38;226141;1277;22536;-73
2023/06/16 21:26:33;;;;;;;5.40;4.90;;;;;;;15.74;68.40;98470.34;226137;1265;24360;-74
2023/06/16 21:31:44;;;;;;;6.00;4.90;;;;;;;15.65;68.77;98473.41;226160;1278;22474;-74
2023/06/16 21:36:50;;;;;;;6.40;5.10;;;;;;;15.58;69.18;98472.33;226179;1267;22539;-73
2023/06/16 21:41:59;;;;;;;5.60;4.90;;;;;;;15.50;69.09;98472.16;226229;1278;23498;-73
2023/06/16 21:47:02;;;;;;;5.90;5.30;;;;;;;15.44;69.51;98473.84;226230;1276;22547;-72
2023/06/16 21:52:18;;;;;;;7.20;5.60;;;;;;;15.38;69.68;98475.09;226215;1278;22680;-73
2023/06/16 21:57:30;;;;;;;5.90;5.40;;;;;;;15.31;70.04;98474.73;226207;1278;22554;-73
2023/06/16 22:03:26;;;;;;;8.40;5.50;;;;;;;15.20;70.23;98475.77;226180;1277;25384;-73
2023/06/16 22:08:31;;;;;;;6.30;5.50;;;;;;;15.09;70.81;98474.11;225881;1278;23011;-72
2023/06/16 22:13:43;;;;;;;7.50;6.00;;;;;;;15.02;71.47;98468.14;226146;1274;22565;-73
2023/06/16 22:18:46;;;;;;;6.80;5.40;;;;;;;14.93;71.82;98467.81;226157;1278;22615;-73
2023/06/16 22:23:56;;;;;;;7.00;5.80;;;;;;;14.83;72.02;98465.45;226182;1275;22540;-73
2023/06/16 22:28:59;;;;;;;6.40;5.90;;;;;;;14.73;72.29;98468.81;226260;1276;22559;-73
2023/06/16 22:34:05;;;;;;;6.30;5.60;;;;;;;14.65;72.73;98467.52;226191;1271;22568;-72
2023/06/16 22:39:20;;;;;;;8.60;5.70;;;;;;;14.57;72.97;98464.30;226212;1274;22539;-73
2023/06/16 22:44:25;;;;;;;7.90;6.50;;;;;;;14.49;73.22;98466.42;226171;1274;22539;-73
2023/06/16 22:49:31;;;;;;;7.10;6.20;;;;;;;14.41;73.55;98463.10;226144;1271;22987;-73
2023/06/16 22:54:55;;;;;;;7.70;6.20;;;;;;;14.35;73.63;98458.86;226190;1278;22546;-73
2023/06/16 23:00:48;;;;;;;8.40;6.50;;;;;;;14.26;74.03;98454.64;226171;1278;25339;-73
2023/06/16 23:06:17;;;;;;;7.20;6.50;;;;;;;14.19;74.18;98456.32;226133;1278;22535;-73
2023/06/16 23:11:27;;;;;;;9.00;6.30;;;;;;;14.11;74.45;98444.29;226200;1277;22562;-73
2023/06/16 23:16:31;;;;;;;8.60;6.80;;;;;;;14.04;74.80;98441.90;226195;1271;22539;-73
2023/06/16 23:21:53;;;;;;;6.90;6.20;;;;;;;13.99;74.91;98443.38;226158;1278;22539;-73
2023/06/16 23:27:00;;;;;;;7.20;6.50;;;;;;;13.92;75.32;98443.61;226221;1272;22641;-73
2023/06/16 23:32:19;;;;;;;7.60;6.80;;;;;;;13.86;75.47;98442.38;226160;1277;22546;-73
2023/06/16 23:37:26;;;;;;;8.60;6.90;;;;;;;13.79;75.43;98449.23;226074;1275;22536;-73